createdAt,value
2018-07-24T00:01:50.028Z,24.50
2018-07-24T00:04:18.738Z,24.50
2018-07-24T00:06:48.368Z,24.50
2018-07-24T00:09:17.076Z,24.50
2018-07-24T00:11:45.736Z,24.50
2018-07-24T00:14:14.402Z,24.40
2018-07-24T00:16:43.125Z,24.40
2018-07-24T00:19:11.817Z,24.40
2018-07-24T00:21:40.469Z,24.30
2018-07-24T00:24:09.204Z,24.30
2018-07-24T00:26:37.889Z,24.30
2018-07-24T00:29:06.578Z,24.30
2018-07-24T00:31:35.259Z,24.20
2018-07-24T00:36:32.296Z,24.10
2018-07-24T00:39:01.008Z,24.10
2018-07-24T00:41:29.777Z,24.10
2018-07-24T00:43:58.443Z,24.20
2018-07-24T00:46:27.082Z,24.10
2018-07-24T00:51:24.137Z,24.10
2018-07-24T00:53:52.818Z,24.10
2018-07-24T00:56:22.210Z,24.00
2018-07-24T00:58:50.910Z,24.00
2018-07-24T01:01:19.653Z,23.90
2018-07-24T01:03:48.350Z,23.90
2018-07-24T01:06:17.035Z,23.80
2018-07-24T01:08:45.738Z,23.80
2018-07-24T01:11:14.464Z,23.80
2018-07-24T01:13:43.140Z,23.70
2018-07-24T01:16:12.451Z,23.70
2018-07-24T01:18:41.120Z,23.60
2018-07-24T01:21:09.822Z,23.60
2018-07-24T01:23:38.498Z,23.50
2018-07-24T01:26:07.148Z,23.40
2018-07-24T01:28:36.135Z,23.40
2018-07-24T01:31:04.834Z,23.40
2018-07-24T01:33:33.534Z,23.40
2018-07-24T01:36:02.295Z,23.40
2018-07-24T01:38:30.982Z,23.40
2018-07-24T01:40:59.688Z,23.20
2018-07-24T01:43:28.393Z,23.30
2018-07-24T01:48:25.521Z,23.30
2018-07-24T01:50:54.212Z,23.20
2018-07-24T01:53:22.919Z,23.20
2018-07-24T01:58:20.073Z,23.10
2018-07-24T02:00:51.252Z,23.10
2018-07-24T02:03:20.793Z,23.10
2018-07-24T02:05:50.156Z,23.10
2018-07-24T02:08:18.849Z,23.00
2018-07-24T02:10:47.568Z,23.00
2018-07-24T02:13:16.244Z,23.00
2018-07-24T02:15:44.950Z,23.00
2018-07-24T02:18:13.634Z,23.00
2018-07-24T02:20:42.330Z,22.90
2018-07-24T02:23:11.279Z,22.90
2018-07-24T02:25:39.948Z,22.90
2018-07-24T02:28:09.033Z,22.80
2018-07-24T02:30:37.783Z,22.80
2018-07-24T02:33:06.526Z,22.70
2018-07-24T02:35:35.263Z,22.70
2018-07-24T02:38:03.924Z,22.60
2018-07-24T02:40:32.572Z,22.60
2018-07-24T02:43:02.229Z,22.60
2018-07-24T02:45:30.915Z,22.60
2018-07-24T02:47:59.687Z,22.60
2018-07-24T02:50:28.358Z,22.60
2018-07-24T02:52:57.150Z,22.60
2018-07-24T02:55:25.805Z,22.50
2018-07-24T02:57:54.494Z,22.50
2018-07-24T03:00:23.212Z,22.50
2018-07-24T03:02:51.856Z,22.50
2018-07-24T03:05:20.548Z,22.50
2018-07-24T03:07:49.258Z,22.40
2018-07-24T03:10:17.966Z,22.40
2018-07-24T03:12:46.647Z,22.40
2018-07-24T03:15:15.366Z,22.30
2018-07-24T03:17:44.024Z,22.30
2018-07-24T03:20:12.802Z,22.20
2018-07-24T03:22:41.502Z,22.20
2018-07-24T03:25:10.200Z,22.10
2018-07-24T03:27:38.878Z,22.10
2018-07-24T03:30:07.593Z,22.00
2018-07-24T03:32:36.335Z,22.00
2018-07-24T03:35:05.019Z,21.90
2018-07-24T03:37:33.722Z,21.80
2018-07-24T03:40:03.344Z,21.80
2018-07-24T03:42:32.005Z,21.80
2018-07-24T03:47:29.131Z,21.70
2018-07-24T03:49:57.796Z,21.70
2018-07-24T03:52:26.461Z,21.70
2018-07-24T03:54:55.134Z,21.70
2018-07-24T03:57:23.829Z,21.70
2018-07-24T03:59:52.586Z,21.70
2018-07-24T04:04:49.683Z,21.70
2018-07-24T04:07:18.387Z,21.70
2018-07-24T04:09:47.125Z,21.70
2018-07-24T04:12:15.787Z,21.70
2018-07-24T04:14:44.481Z,21.70
2018-07-24T04:17:13.197Z,21.70
2018-07-24T04:19:41.899Z,21.70
2018-07-24T04:24:38.983Z,21.80
2018-07-24T04:27:07.744Z,21.80
2018-07-24T04:29:36.430Z,21.90
2018-07-24T04:32:05.179Z,22.00
2018-07-24T04:34:33.868Z,21.90
2018-07-24T04:37:02.529Z,22.00
2018-07-24T04:39:31.279Z,22.00
2018-07-24T04:41:59.982Z,22.10
2018-07-24T04:44:28.654Z,22.10
2018-07-24T04:46:57.352Z,22.10
2018-07-24T04:49:26.033Z,22.10
2018-07-24T04:51:54.723Z,22.10
2018-07-24T04:54:24.265Z,22.20
2018-07-24T04:56:52.975Z,22.20
2018-07-24T05:01:50.070Z,22.30
2018-07-24T05:04:18.844Z,22.40
2018-07-24T05:06:47.465Z,22.40
2018-07-24T05:09:16.153Z,22.40
2018-07-24T05:11:45.078Z,22.50
2018-07-24T05:14:13.730Z,22.50
2018-07-24T05:16:42.880Z,22.50
2018-07-24T05:19:11.540Z,22.60
2018-07-24T05:21:40.282Z,22.60
2018-07-24T05:26:37.360Z,22.60
2018-07-24T05:29:06.042Z,22.60
2018-07-24T05:31:34.684Z,22.60
2018-07-24T05:34:03.386Z,22.60
2018-07-24T05:36:32.060Z,22.70
2018-07-24T05:39:00.734Z,23.60
2018-07-24T05:41:29.407Z,24.70
2018-07-24T05:43:58.145Z,26.20
2018-07-24T05:46:26.804Z,27.80
2018-07-24T05:48:55.530Z,28.70
2018-07-24T05:51:24.237Z,29.60
2018-07-24T05:53:52.878Z,31.00
2018-07-24T05:56:21.568Z,32.10
2018-07-24T05:58:50.216Z,33.10
2018-07-24T06:01:18.914Z,33.80
2018-07-24T06:03:47.586Z,34.50
2018-07-24T06:06:16.281Z,35.40
2018-07-24T06:08:44.942Z,35.70
2018-07-24T06:11:13.651Z,35.70
2018-07-24T06:13:42.305Z,36.50
2018-07-24T06:16:11.003Z,36.90
2018-07-24T06:18:39.758Z,37.40
2018-07-24T06:21:08.428Z,37.40
2018-07-24T06:23:37.180Z,37.90
2018-07-24T06:26:05.835Z,38.30
2018-07-24T06:28:34.644Z,38.50
2018-07-24T06:31:04.002Z,38.90
2018-07-24T06:36:01.208Z,39.10
2018-07-24T06:38:29.901Z,39.50
2018-07-24T06:40:58.710Z,39.50
2018-07-24T06:45:55.889Z,39.50
2018-07-24T06:48:24.573Z,39.60
2018-07-24T06:53:21.634Z,40.50
2018-07-24T06:58:18.719Z,41.00
2018-07-24T07:00:47.433Z,41.30
2018-07-24T07:03:16.136Z,41.90
2018-07-24T07:05:44.889Z,42.30
2018-07-24T07:08:13.551Z,42.70
2018-07-24T07:15:40.023Z,43.50
2018-07-24T07:20:38.270Z,44.50
2018-07-24T07:23:06.901Z,44.70
2018-07-24T07:25:35.656Z,44.80
2018-07-24T07:28:04.345Z,45.20
2018-07-24T07:30:33.017Z,45.40
2018-07-24T07:33:02.018Z,45.60
2018-07-24T07:35:30.727Z,45.60
2018-07-24T07:40:28.565Z,45.50
2018-07-24T07:42:57.274Z,45.70
2018-07-24T07:45:27.418Z,46.00
2018-07-24T07:52:53.178Z,47.10
2018-07-24T07:55:21.909Z,47.40
2018-07-24T07:57:50.654Z,47.40
2018-07-24T08:00:19.594Z,48.00
2018-07-24T08:02:48.280Z,47.80
2018-07-24T08:05:17.006Z,48.00
2018-07-24T08:07:45.801Z,48.60
2018-07-24T08:10:14.471Z,48.90
2018-07-24T08:12:43.170Z,48.70
2018-07-24T08:17:40.261Z,49.50
2018-07-24T08:20:08.985Z,49.80
2018-07-24T08:22:37.722Z,50.20
2018-07-24T08:25:06.447Z,50.30
2018-07-24T08:27:35.130Z,50.30
2018-07-24T08:30:03.960Z,50.60
2018-07-24T08:32:32.675Z,50.20
2018-07-24T08:35:01.345Z,50.30
2018-07-24T08:39:58.453Z,51.10
2018-07-24T08:42:27.137Z,51.20
2018-07-24T08:44:55.795Z,51.50
2018-07-24T08:47:24.474Z,51.80
2018-07-24T08:49:53.137Z,51.90
2018-07-24T08:52:28.379Z,52.00
2018-07-24T08:57:25.432Z,51.90
2018-07-24T08:59:54.115Z,52.10
2018-07-24T09:04:51.224Z,51.50
2018-07-24T09:07:19.981Z,51.40
2018-07-24T09:09:48.630Z,51.40
2018-07-24T09:12:17.382Z,51.60
2018-07-24T09:14:46.058Z,52.30
2018-07-24T09:19:43.149Z,52.50
2018-07-24T09:22:11.863Z,53.40
2018-07-24T09:29:37.416Z,53.00
2018-07-24T09:32:06.217Z,53.30
2018-07-24T09:34:34.834Z,53.50
2018-07-24T09:42:00.225Z,52.80
2018-07-24T09:44:28.977Z,53.60
2018-07-24T09:51:54.435Z,53.80
2018-07-24T09:54:23.198Z,54.10
2018-07-24T09:56:51.858Z,54.50
2018-07-24T09:59:20.693Z,54.40
2018-07-24T10:06:46.173Z,54.40
2018-07-24T10:09:14.854Z,54.80
2018-07-24T10:11:43.586Z,54.70
2018-07-24T10:14:12.373Z,54.80
2018-07-24T10:19:09.438Z,54.50
2018-07-24T10:24:06.541Z,53.30
2018-07-24T10:26:35.247Z,52.80
2018-07-24T10:29:03.965Z,52.50
2018-07-24T10:34:01.042Z,51.80
2018-07-24T10:38:58.174Z,51.60
2018-07-24T10:41:26.847Z,51.40
2018-07-24T10:43:55.560Z,51.50
2018-07-24T10:46:24.240Z,51.20
2018-07-24T10:51:21.365Z,50.80
2018-07-24T10:53:50.046Z,50.50
2018-07-24T10:56:18.741Z,49.90
2018-07-24T10:58:47.456Z,49.90
2018-07-24T11:01:16.157Z,49.70
2018-07-24T11:03:44.860Z,49.70
2018-07-24T11:08:41.903Z,49.50
2018-07-24T11:16:08.346Z,48.50
2018-07-24T11:18:37.095Z,48.40
2018-07-24T11:23:34.197Z,48.50
2018-07-24T11:30:59.668Z,47.60
2018-07-24T11:33:28.409Z,47.20
2018-07-24T11:35:57.202Z,47.20
2018-07-24T11:38:25.790Z,47.10
2018-07-24T11:43:22.904Z,46.40
2018-07-24T11:50:48.417Z,45.20
2018-07-24T11:53:17.117Z,45.20
2018-07-24T11:55:45.780Z,44.60
2018-07-24T11:58:14.476Z,44.40
2018-07-24T12:00:43.170Z,44.30
2018-07-24T12:03:11.871Z,44.10
2018-07-24T12:05:40.507Z,44.00
2018-07-24T12:08:09.160Z,43.90
2018-07-24T12:10:37.907Z,43.90
2018-07-24T12:13:06.621Z,43.90
2018-07-24T12:15:35.295Z,43.60
2018-07-24T12:18:03.955Z,43.40
2018-07-24T12:20:32.626Z,43.20
2018-07-24T12:23:01.302Z,42.90
2018-07-24T12:25:30.003Z,42.70
2018-07-24T12:27:58.705Z,42.70
2018-07-24T12:30:27.391Z,42.50
2018-07-24T12:32:56.136Z,42.50
2018-07-24T12:35:24.859Z,42.50
2018-07-24T12:37:53.534Z,42.40
2018-07-24T12:40:22.224Z,42.20
2018-07-24T12:42:50.949Z,42.00
2018-07-24T12:45:19.669Z,42.00
2018-07-24T12:47:48.355Z,41.80
2018-07-24T12:50:17.054Z,41.60
2018-07-24T12:52:45.760Z,41.50
2018-07-24T12:57:42.826Z,41.10
2018-07-24T13:00:11.496Z,40.90
2018-07-24T13:05:08.646Z,40.70
2018-07-24T13:07:37.344Z,40.70
2018-07-24T13:17:31.109Z,40.50
2018-07-24T13:19:59.798Z,40.30
2018-07-24T13:24:56.921Z,39.60
2018-07-24T13:32:22.393Z,39.30
2018-07-24T13:42:17.102Z,37.90
2018-07-24T13:44:45.820Z,37.80
2018-07-24T13:49:43.164Z,37.40
2018-07-24T13:52:11.936Z,37.40
2018-07-24T13:54:40.572Z,37.50
2018-07-24T13:57:09.281Z,37.40
2018-07-24T14:07:03.930Z,37.50
2018-07-24T14:09:32.634Z,37.50
2018-07-24T14:19:26.497Z,37.20
2018-07-24T14:21:55.867Z,37.10
2018-07-24T14:24:24.532Z,37.10
2018-07-24T14:31:49.963Z,37.40
2018-07-24T14:36:47.066Z,36.90
2018-07-24T14:39:16.326Z,36.80
2018-07-24T14:44:13.408Z,36.70
2018-07-24T14:51:38.951Z,36.20
2018-07-24T14:56:36.064Z,35.90
2018-07-24T14:59:04.729Z,35.80
2018-07-24T15:01:33.425Z,35.70
2018-07-24T15:13:55.731Z,35.50
2018-07-24T15:18:52.823Z,35.60
2018-07-24T15:23:49.882Z,35.70
2018-07-24T15:38:41.034Z,35.60
2018-07-24T15:46:06.507Z,35.70
2018-07-24T15:51:03.549Z,35.60
2018-07-24T15:53:32.270Z,35.50
2018-07-24T15:58:29.360Z,35.30
2018-07-24T16:03:26.506Z,35.20
2018-07-24T16:05:55.153Z,35.20
2018-07-24T16:08:23.877Z,35.10
2018-07-24T16:15:49.342Z,34.90
2018-07-24T16:23:14.692Z,34.90
2018-07-24T16:28:11.774Z,34.80
2018-07-24T16:30:40.457Z,34.80
2018-07-24T16:33:09.116Z,34.70
2018-07-24T16:35:37.866Z,34.60
2018-07-24T16:43:03.392Z,34.50
2018-07-24T16:50:29.009Z,34.50
2018-07-24T17:05:19.523Z,34.40
2018-07-24T17:12:45.019Z,34.30
2018-07-24T17:15:13.706Z,34.30
2018-07-24T17:17:42.405Z,34.30
2018-07-24T17:20:11.142Z,34.20
2018-07-24T17:27:36.599Z,34.10
2018-07-24T17:32:33.647Z,34.00
2018-07-24T17:37:31.008Z,33.70
2018-07-24T17:49:53.321Z,33.50
2018-07-24T17:52:21.998Z,33.50
2018-07-24T17:57:19.055Z,33.40
2018-07-24T18:04:44.584Z,33.30
2018-07-24T18:27:07.034Z,32.80
2018-07-24T18:37:00.922Z,32.70
2018-07-24T18:51:51.879Z,32.40
2018-07-24T18:56:48.997Z,32.20
2018-07-24T19:09:12.356Z,32.00
2018-07-24T19:14:09.607Z,31.90
2018-07-24T19:19:07.737Z,31.70
2018-07-24T19:26:33.323Z,31.60
2018-07-24T19:36:27.290Z,31.30
2018-07-24T19:51:17.937Z,30.90
2018-07-24T20:01:12.043Z,30.70
2018-07-24T20:08:37.659Z,30.60
2018-07-24T20:13:34.846Z,30.50
2018-07-24T20:18:31.916Z,30.40
2018-07-24T20:21:00.564Z,30.30
2018-07-24T20:23:29.392Z,30.30
2018-07-24T20:28:26.321Z,30.20
2018-07-24T20:30:55.252Z,30.20
2018-07-24T20:33:25.306Z,30.10
2018-07-24T20:38:22.413Z,30.10
2018-07-24T20:43:19.685Z,30.00
2018-07-24T20:48:18.102Z,29.90
2018-07-24T20:53:15.204Z,29.80
2018-07-24T20:58:12.313Z,29.70
2018-07-24T21:00:41.009Z,29.70
2018-07-24T21:13:03.384Z,29.60
2018-07-24T21:18:00.386Z,29.50
2018-07-24T21:25:25.884Z,29.40
2018-07-24T21:27:54.610Z,29.40
2018-07-24T21:32:51.675Z,29.30
2018-07-24T21:35:20.357Z,29.30
2018-07-24T21:42:45.958Z,29.10
2018-07-24T21:50:11.389Z,29.10
2018-07-24T21:52:40.112Z,29.10
2018-07-24T21:55:08.828Z,29.00
2018-07-24T21:57:37.539Z,29.00
2018-07-24T22:00:08.884Z,28.90
2018-07-24T22:05:05.989Z,28.90
2018-07-24T22:07:35.517Z,28.90
2018-07-24T22:10:08.851Z,28.80
2018-07-24T22:15:10.329Z,28.70
2018-07-24T22:25:04.827Z,28.60
2018-07-24T22:27:33.566Z,28.50
2018-07-24T22:30:02.318Z,28.50
2018-07-24T22:39:56.236Z,28.40
2018-07-24T22:44:53.379Z,28.30
2018-07-24T22:47:22.113Z,28.30
2018-07-24T22:54:47.689Z,28.10
2018-07-24T22:57:16.461Z,28.10
2018-07-24T22:59:45.137Z,28.10
2018-07-24T23:02:13.831Z,28.00
2018-07-24T23:04:42.542Z,28.00
2018-07-24T23:12:08.137Z,28.00
2018-07-24T23:14:36.873Z,27.90
2018-07-24T23:17:05.638Z,27.90
2018-07-24T23:22:02.726Z,27.70
2018-07-24T23:24:31.491Z,27.60
2018-07-24T23:27:00.166Z,27.60
2018-07-24T23:29:28.920Z,27.50
2018-07-24T23:36:54.490Z,27.50
2018-07-24T23:41:51.590Z,27.30
2018-07-24T23:44:20.307Z,27.30
2018-07-24T23:46:49.080Z,27.30
2018-07-24T23:51:52.041Z,27.10
2018-07-24T23:54:20.749Z,27.10
2018-07-24T23:59:17.918Z,27.00
